地図

経路データ

SID SEASON NUMBER BASIN SUBBASIN NAME ISO_TIME NATURE LAT LON WMO_WIND WMO_PRES WMO_AGENCY TRACK_TYPE DIST2LAND LANDFALL IFLAG USA_AGENCY USA_ATCF_ID USA_LAT USA_LON USA_RECORD USA_STATUS USA_WIND USA_PRES USA_SSHS USA_R34_NE USA_R34_SE USA_R34_SW USA_R34_NW USA_R50_NE USA_R50_SE USA_R50_SW USA_R50_NW USA_R64_NE USA_R64_SE USA_R64_SW USA_R64_NW USA_POCI USA_ROCI USA_RMW USA_EYE TOKYO_LAT TOKYO_LON TOKYO_GRADE TOKYO_WIND TOKYO_PRES TOKYO_R50_DIR TOKYO_R50_LONG TOKYO_R50_SHORT TOKYO_R30_DIR TOKYO_R30_LONG TOKYO_R30_SHORT TOKYO_LAND CMA_LAT CMA_LON CMA_CAT CMA_WIND CMA_PRES HKO_LAT HKO_LON HKO_CAT HKO_WIND HKO_PRES NEWDELHI_LAT NEWDELHI_LON NEWDELHI_GRADE NEWDELHI_WIND NEWDELHI_PRES NEWDELHI_CI NEWDELHI_DP NEWDELHI_POCI REUNION_LAT REUNION_LON REUNION_TYPE REUNION_WIND REUNION_PRES REUNION_TNUM REUNION_CI REUNION_RMW REUNION_R34_NE REUNION_R34_SE REUNION_R34_SW REUNION_R34_NW REUNION_R50_NE REUNION_R50_SE REUNION_R50_SW REUNION_R50_NW REUNION_R64_NE REUNION_R64_SE REUNION_R64_SW REUNION_R64_NW BOM_LAT BOM_LON BOM_TYPE BOM_WIND BOM_PRES BOM_TNUM BOM_CI BOM_RMW BOM_R34_NE BOM_R34_SE BOM_R34_SW BOM_R34_NW BOM_R50_NE BOM_R50_SE BOM_R50_SW BOM_R50_NW BOM_R64_NE BOM_R64_SE BOM_R64_SW BOM_R64_NW BOM_ROCI BOM_POCI BOM_EYE BOM_POS_METHOD BOM_PRES_METHOD NADI_LAT NADI_LON NADI_CAT NADI_WIND NADI_PRES WELLINGTON_LAT WELLINGTON_LON WELLINGTON_WIND WELLINGTON_PRES DS824_LAT DS824_LON DS824_STAGE DS824_WIND DS824_PRES TD9636_LAT TD9636_LON TD9636_STAGE TD9636_WIND TD9636_PRES TD9635_LAT TD9635_LON TD9635_WIND TD9635_PRES TD9635_ROCI NEUMANN_LAT NEUMANN_LON NEUMANN_CLASS NEUMANN_WIND NEUMANN_PRES MLC_LAT MLC_LON MLC_CLASS MLC_WIND MLC_PRES USA_GUST BOM_GUST BOM_GUST_PER REUNION_GUST REUNION_GUST_PER USA_SEAHGT USA_SEARAD_NE USA_SEARAD_SE USA_SEARAD_SW USA_SEARAD_NW STORM_SPEED STORM_DIR
1917060S14069 1917 12 SI MM NOT_NAMED 1917-02-28 18:00:00 NR -14.0000 68.5000 main 1335 1329 __________O___ -1 -14.0000 68.5000 7 2 192
1917060S14069 1917 12 SI MM NOT_NAMED 1917-02-28 21:00:00 NR -14.1094 68.4996 main 1329 1317 __________P___ -1 -14.1094 68.4996 7 3 183
1917060S14069 1917 12 SI MM NOT_NAMED 1917-03-01 00:00:00 NR -14.2650 68.4894 main 1317 1306 __________P___ -1 -14.2650 68.4894 7 4 185
1917060S14069 1917 12 SI MM NOT_NAMED 1917-03-01 03:00:00 NR -14.5131 68.4595 main 1306 1274 __________P___ -1 -14.5131 68.4595 7 6 188
1917060S14069 1917 12 SI MM NOT_NAMED 1917-03-01 06:00:00 NR -14.9000 68.4000 main 1274 1238 __________O___ -1 -14.9000 68.4000 7 10 189
1917060S14069 1917 12 SI MM NOT_NAMED 1917-03-01 09:00:00 NR -15.4523 68.3060 main 1233 1194 __________P___ -1 -15.4523 68.3060 7 12 189
1917060S14069 1917 12 SI MM NOT_NAMED 1917-03-01 12:00:00 NR -16.1177 68.1935 main 1194 1153 __________P___ -1 -16.1177 68.1935 7 14 189
1917060S14069 1917 12 SI MM NOT_NAMED 1917-03-01 15:00:00 NR -16.8242 68.0842 main 1153 1117 __________P___ -1 -16.8242 68.0842 7 14 188
1917060S14069 1917 12 SI MM NOT_NAMED 1917-03-01 18:00:00 NR -17.5000 68.0000 main 1117 1101 __________O___ -1 -17.5000 68.0000 7 12 186
1917060S14069 1917 12 SI MM NOT_NAMED 1917-03-01 21:00:00 NR -18.0430 67.9628 main 1101 1088 __________P___ -1 -18.0430 67.9628 7 11 182
1917060S14069 1917 12 SI MM NOT_NAMED 1917-03-02 00:00:00 NR -18.5449 67.9547 main 1088 1077 __________P___ -1 -18.5449 67.9547 7 10 0
1917060S14069 1917 12 SI MM NOT_NAMED 1917-03-02 03:00:00 NR -19.0243 67.9692 main 1077 1069 __________P___ -1 -19.0243 67.9692 7 10 177
1917060S14069 1917 12 SI MM NOT_NAMED 1917-03-02 06:00:00 NR -19.5000 68.0000 main 1069 1065 __________O___ -1 -19.5000 68.0000 7 10 177
1917060S14069 1917 12 SI MM NOT_NAMED 1917-03-02 09:00:00 NR -20.0081 68.0236 main 1065 1063 __________P___ -1 -20.0081 68.0236 7 10 177
1917060S14069 1917 12 SI MM NOT_NAMED 1917-03-02 12:00:00 NR -20.5149 68.0628 main 1073 1073 __________P___ -1 -20.5149 68.0628 7 10 175
1917060S14069 1917 12 SI MM NOT_NAMED 1917-03-02 15:00:00 NR -21.0143 68.1206 main 1074 1074 __________P___ -1 -21.0143 68.1206 7 10 173
1917060S14069 1917 12 SI MM NOT_NAMED 1917-03-02 18:00:00 NR -21.5000 68.2000 main 1088 1088 __________O___ -1 -21.5000 68.2000 7 10 170
1917060S14069 1917 12 SI MM NOT_NAMED 1917-03-02 21:00:00 NR -21.9676 68.3027 main 1104 1104 __________P___ -1 -21.9676 68.3027 7 9 167
1917060S14069 1917 12 SI MM NOT_NAMED 1917-03-03 00:00:00 NR -22.4201 68.4241 main 1122 1122 __________P___ -1 -22.4201 68.4241 7 9 165
1917060S14069 1917 12 SI MM NOT_NAMED 1917-03-03 03:00:00 NR -22.8626 68.5586 main 1153 1153 __________P___ -1 -22.8626 68.5586 7 9 164
1917060S14069 1917 12 SI MM NOT_NAMED 1917-03-03 06:00:00 NR -23.3000 68.7000 main 1173 __________O___ -1 -23.3000 68.7000 7 9 163

IBTrACS Databaseについて

本データベースは、米国NOAAが公開する1842年以降の世界の熱帯低気圧のベストトラックデータアーカイブInternational Best Track Archive for Climate Stewardship (IBTrACS)を、ウェブで閲覧しやすい形式に変換したものです。

最終更新日:2021-12-06